Time;durP1;ratioP1;P1;durP2;ratioP2;P2;SDS_P1;SDS_P2;PMS_P1;PMS_P2;Temp;Humidity;BMP_temperature;BMP_pressure;BME280_temperature;BME280_humidity;BME280_pressure;Samples;Min_cycle;Max_cycle;Signal;HPM_P1;HPM_P2
2023/03/02 00:00:35;;;;;;;;;1.00;1.00;;;;;;;;5030498;28;8793;-74
2023/03/02 00:03:01;;;;;;;;;0.67;0.67;;;;;;;;5030066;28;8794;-75
2023/03/02 00:05:27;;;;;;;;;1.00;1.00;;;;;;;;5031609;28;8828;-74
2023/03/02 00:07:53;;;;;;;;;0.00;0.00;;;;;;;;5031480;28;8808;-74
2023/03/02 00:10:19;;;;;;;;;1.00;1.00;;;;;;;;5031530;28;8805;-75
2023/03/02 00:12:44;;;;;;;;;0.67;0.67;;;;;;;;5030019;28;8918;-75
2023/03/02 00:15:09;;;;;;;;;0.67;0.67;;;;;;;;5031328;28;8817;-77
2023/03/02 00:17:36;;;;;;;;;1.00;1.00;;;;;;;;5031298;28;8894;-74
2023/03/02 00:20:10;;;;;;;;;0.00;0.00;;;;;;;;5031435;28;9543;-74
2023/03/02 00:22:37;;;;;;;;;0.00;0.00;;;;;;;;5031242;28;8805;-74
2023/03/02 00:25:03;;;;;;;;;0.33;0.33;;;;;;;;5031354;28;8782;-74
2023/03/02 00:27:28;;;;;;;;;4.00;4.00;;;;;;;;5030398;28;8813;-74
2023/03/02 00:29:57;;;;;;;;;1.00;1.00;;;;;;;;5031643;28;8829;-74
2023/03/02 00:32:22;;;;;;;;;1.00;1.00;;;;;;;;5031625;28;8967;-74
2023/03/02 00:34:48;;;;;;;;;0.00;0.00;;;;;;;;5030945;28;8848;-74
2023/03/02 00:37:13;;;;;;;;;1.00;1.00;;;;;;;;5031206;28;8770;-74
2023/03/02 00:39:38;;;;;;;;;1.00;1.00;;;;;;;;5031018;28;8790;-74
2023/03/02 00:42:03;;;;;;;;;0.00;0.00;;;;;;;;5031045;28;8814;-74
2023/03/02 00:44:29;;;;;;;;;1.00;1.00;;;;;;;;5030978;28;8851;-74
2023/03/02 00:46:54;;;;;;;;;1.00;0.67;;;;;;;;5030854;28;8962;-74
2023/03/02 00:49:20;;;;;;;;;3.00;1.00;;;;;;;;5030854;28;8813;-74
2023/03/02 00:51:45;;;;;;;;;1.00;1.00;;;;;;;;5030908;28;8793;-74
2023/03/02 00:54:10;;;;;;;;;0.00;0.00;;;;;;;;5030810;28;8914;-74
2023/03/02 00:56:36;;;;;;;;;3.00;1.00;;;;;;;;5029251;28;8813;-74
2023/03/02 00:59:05;;;;;;;;;0.33;0.33;;;;;;;;5030174;28;8816;-74
2023/03/02 01:01:30;;;;;;;;;1.00;1.00;;;;;;;;5030602;28;8797;-73
2023/03/02 01:03:55;;;;;;;;;0.00;0.00;;;;;;;;5030699;28;9642;-75
2023/03/02 01:06:20;;;;;;;;;0.67;0.67;;;;;;;;5030314;28;8798;-74
2023/03/02 01:08:46;;;;;;;;;2.33;2.33;;;;;;;;5030450;28;8808;-74
2023/03/02 01:11:12;;;;;;;;;1.00;1.00;;;;;;;;5030490;28;8798;-74
2023/03/02 01:13:38;;;;;;;;;0.00;0.00;;;;;;;;5030319;28;8828;-74
2023/03/02 01:16:03;;;;;;;;;1.00;1.00;;;;;;;;5030283;28;8793;-74
2023/03/02 01:18:29;;;;;;;;;7.00;1.00;;;;;;;;5030115;28;8789;-74
2023/03/02 01:21:04;;;;;;;;;1.00;1.00;;;;;;;;5030251;28;8912;-73
2023/03/02 01:23:30;;;;;;;;;5.33;1.00;;;;;;;;5030554;28;8805;-74
2023/03/02 01:25:55;;;;;;;;;3.00;0.00;;;;;;;;5030120;28;8862;-74
2023/03/02 01:28:20;;;;;;;;;0.33;0.33;;;;;;;;5029901;28;8786;-74
2023/03/02 01:30:46;;;;;;;;;1.00;1.00;;;;;;;;5030054;28;8827;-74
2023/03/02 01:33:11;;;;;;;;;3.00;1.00;;;;;;;;5028477;28;8814;-74
2023/03/02 01:35:36;;;;;;;;;0.33;0.33;;;;;;;;5029934;28;8802;-74
2023/03/02 01:38:01;;;;;;;;;0.00;0.00;;;;;;;;5029634;28;8809;-75
2023/03/02 01:40:27;;;;;;;;;0.67;0.67;;;;;;;;5029797;28;8863;-72
2023/03/02 01:42:56;;;;;;;;;2.00;1.00;;;;;;;;5029792;28;8797;-74
2023/03/02 01:45:39;;;;;;;;;1.67;1.67;;;;;;;;5029707;28;8790;-74
2023/03/02 01:48:05;;;;;;;;;2.67;1.00;;;;;;;;5028303;28;8813;-75
2023/03/02 01:50:30;;;;;;;;;0.00;0.00;;;;;;;;5029764;28;8932;-74
2023/03/02 01:52:55;;;;;;;;;3.00;1.00;;;;;;;;5029569;28;8801;-74
2023/03/02 01:55:23;;;;;;;;;1.67;1.00;;;;;;;;5029393;28;8927;-73
2023/03/02 01:57:51;;;;;;;;;1.00;1.00;;;;;;;;5029387;28;8809;-74
2023/03/02 02:00:22;;;;;;;;;1.00;1.00;;;;;;;;5029533;28;8785;-74
2023/03/02 02:02:48;;;;;;;;;0.67;0.67;;;;;;;;5029584;28;8797;-74
2023/03/02 02:05:18;;;;;;;;;4.00;0.67;;;;;;;;5029734;28;8824;-74
2023/03/02 02:07:44;;;;;;;;;3.00;3.00;;;;;;;;5029396;28;8935;-74
2023/03/02 02:10:10;;;;;;;;;0.67;0.67;;;;;;;;5028780;28;8914;-74
2023/03/02 02:12:35;;;;;;;;;1.67;1.67;;;;;;;;5029186;28;8906;-74
2023/03/02 02:15:01;;;;;;;;;0.00;0.00;;;;;;;;5029126;28;8821;-74
2023/03/02 02:17:29;;;;;;;;;1.00;1.00;;;;;;;;5029158;28;8798;-74
2023/03/02 02:20:01;;;;;;;;;3.00;1.00;;;;;;;;5029169;28;8817;-74
2023/03/02 02:22:38;;;;;;;;;1.00;1.00;;;;;;;;5029167;28;8816;-75
2023/03/02 02:25:10;;;;;;;;;3.00;1.00;;;;;;;;5029170;28;8781;-74
2023/03/02 02:27:35;;;;;;;;;3.67;1.00;;;;;;;;5029266;28;9658;-74
2023/03/02 02:30:03;;;;;;;;;1.00;1.00;;;;;;;;5029209;28;9129;-74
2023/03/02 02:32:31;;;;;;;;;1.00;1.00;;;;;;;;5029364;28;8877;-74
2023/03/02 02:35:20;;;;;;;;;1.00;1.00;;;;;;;;5027489;28;8952;-74
2023/03/02 02:37:50;;;;;;;;;6.33;3.67;;;;;;;;5027461;28;8813;-75
2023/03/02 02:40:17;;;;;;;;;6.33;1.00;;;;;;;;5028822;28;8793;-75
2023/03/02 02:42:44;;;;;;;;;3.00;3.00;;;;;;;;5028933;28;8801;-74
2023/03/02 02:45:17;;;;;;;;;3.00;3.00;;;;;;;;5028986;28;8890;-73
2023/03/02 02:47:42;;;;;;;;;6.00;0.67;;;;;;;;5028805;28;8789;-73
2023/03/02 02:50:15;;;;;;;;;1.00;1.00;;;;;;;;5028669;28;9489;-73
2023/03/02 02:52:41;;;;;;;;;1.00;1.00;;;;;;;;5028911;28;9559;-73
2023/03/02 02:55:13;;;;;;;;;1.67;1.00;;;;;;;;5028742;28;8891;-73
2023/03/02 02:57:39;;;;;;;;;3.00;3.00;;;;;;;;5027213;28;8809;-75
2023/03/02 03:00:05;;;;;;;;;1.00;1.00;;;;;;;;5028617;28;8884;-75
2023/03/02 03:02:33;;;;;;;;;3.00;3.00;;;;;;;;5028901;28;9540;-75
2023/03/02 03:05:02;;;;;;;;;3.00;3.00;;;;;;;;5028699;28;9551;-74
2023/03/02 03:07:29;;;;;;;;;6.00;0.00;;;;;;;;5028725;28;8798;-74
2023/03/02 03:09:57;;;;;;;;;4.00;3.33;;;;;;;;5028615;28;8920;-74
2023/03/02 03:12:24;;;;;;;;;2.00;2.00;;;;;;;;5027299;28;8918;-75
2023/03/02 03:14:49;;;;;;;;;4.00;2.33;;;;;;;;5028973;28;8878;-75
2023/03/02 03:17:15;;;;;;;;;4.00;4.00;;;;;;;;5028612;28;8801;-75
2023/03/02 03:19:41;;;;;;;;;2.00;1.33;;;;;;;;5028787;28;8797;-75
2023/03/02 03:22:10;;;;;;;;;4.00;4.00;;;;;;;;5032191;28;8827;-75
2023/03/02 03:24:36;;;;;;;;;5.00;2.67;;;;;;;;5032593;28;8923;-74
2023/03/02 03:27:04;;;;;;;;;2.00;2.00;;;;;;;;5032448;28;8797;-74
2023/03/02 03:29:30;;;;;;;;;2.00;2.00;;;;;;;;5032397;28;8797;-74
2023/03/02 03:31:56;;;;;;;;;5.00;2.00;;;;;;;;5032148;28;8875;-73
2023/03/02 03:34:22;;;;;;;;;4.00;1.67;;;;;;;;5033067;22;8854;-66
2023/03/02 03:36:47;;;;;;;;;2.00;2.00;;;;;;;;5033734;28;8843;-66
2023/03/02 03:39:13;;;;;;;;;5.00;1.67;;;;;;;;5033750;28;8783;-66
2023/03/02 03:41:39;;;;;;;;;5.00;2.67;;;;;;;;5033597;28;8916;-66
2023/03/02 03:44:04;;;;;;;;;2.00;2.00;;;;;;;;5034112;28;8833;-65
2023/03/02 03:46:29;;;;;;;;;1.67;1.33;;;;;;;;5033628;28;8778;-65
2023/03/02 03:48:55;;;;;;;;;2.00;2.00;;;;;;;;5033695;28;8893;-66
2023/03/02 03:51:21;;;;;;;;;1.00;1.00;;;;;;;;5033670;28;8808;-67
2023/03/02 03:53:58;;;;;;;;;8.00;2.00;;;;;;;;5033653;28;8818;-66
2023/03/02 03:56:23;;;;;;;;;4.00;4.00;;;;;;;;5033536;28;8809;-66
2023/03/02 03:58:49;;;;;;;;;5.67;2.00;;;;;;;;5033521;28;8804;-66
2023/03/02 04:01:14;;;;;;;;;4.00;2.00;;;;;;;;5033629;28;8790;-65
2023/03/02 04:03:39;;;;;;;;;3.33;2.00;;;;;;;;5033409;28;8782;-66
2023/03/02 04:06:05;;;;;;;;;5.00;2.00;;;;;;;;5033342;28;8782;-66
2023/03/02 04:08:30;;;;;;;;;2.67;1.00;;;;;;;;5033401;28;8929;-67
2023/03/02 04:10:55;;;;;;;;;2.00;1.00;;;;;;;;5033097;28;8798;-66
2023/03/02 04:13:21;;;;;;;;;2.00;1.00;;;;;;;;5033114;28;9573;-66
2023/03/02 04:15:46;;;;;;;;;1.00;1.00;;;;;;;;5031873;28;8810;-66
2023/03/02 04:18:11;;;;;;;;;3.33;0.00;;;;;;;;5033212;28;8804;-67
2023/03/02 04:20:37;;;;;;;;;1.00;1.00;;;;;;;;5033178;28;8875;-67
2023/03/02 04:23:02;;;;;;;;;1.33;1.33;;;;;;;;5033125;28;8782;-67
2023/03/02 04:25:28;;;;;;;;;1.00;1.00;;;;;;;;5032961;28;8802;-67
2023/03/02 04:27:54;;;;;;;;;2.67;2.00;;;;;;;;5033082;28;9489;-67
2023/03/02 04:30:21;;;;;;;;;1.67;1.00;;;;;;;;5033002;28;8786;-67
2023/03/02 04:32:47;;;;;;;;;2.67;1.33;;;;;;;;5031382;28;9572;-67
2023/03/02 04:35:12;;;;;;;;;5.00;2.00;;;;;;;;5032818;28;8841;-67
2023/03/02 04:37:37;;;;;;;;;0.00;0.00;;;;;;;;5032840;28;8892;-67
2023/03/02 04:40:03;;;;;;;;;4.00;1.00;;;;;;;;5032631;28;8790;-65
2023/03/02 04:42:28;;;;;;;;;1.00;1.00;;;;;;;;5032769;28;8805;-65
2023/03/02 04:44:54;;;;;;;;;1.00;1.00;;;;;;;;5032697;28;8821;-65
2023/03/02 04:47:19;;;;;;;;;2.33;1.00;;;;;;;;5032608;28;8798;-65
2023/03/02 04:49:44;;;;;;;;;1.67;1.67;;;;;;;;5032500;28;8802;-67
2023/03/02 04:52:10;;;;;;;;;1.33;1.00;;;;;;;;5032556;28;8778;-69
2023/03/02 04:54:35;;;;;;;;;1.00;1.00;;;;;;;;5032471;28;8830;-67
2023/03/02 04:57:00;;;;;;;;;4.00;2.00;;;;;;;;5032080;28;8806;-66
2023/03/02 04:59:26;;;;;;;;;1.33;1.00;;;;;;;;5032161;28;8818;-65
2023/03/02 05:01:53;;;;;;;;;1.33;1.00;;;;;;;;5030275;28;8812;-67
2023/03/02 05:04:18;;;;;;;;;4.00;1.33;;;;;;;;5031270;28;8786;-66
2023/03/02 05:06:44;;;;;;;;;2.67;1.00;;;;;;;;5031888;28;8813;-66
2023/03/02 05:09:10;;;;;;;;;2.00;1.00;;;;;;;;5031826;28;8778;-66
2023/03/02 05:11:35;;;;;;;;;1.00;1.00;;;;;;;;5032014;28;8846;-66
2023/03/02 05:14:06;;;;;;;;;1.33;1.00;;;;;;;;5031698;28;8817;-66
2023/03/02 05:16:32;;;;;;;;;4.33;2.00;;;;;;;;5036981;28;8898;-66
2023/03/02 05:18:57;;;;;;;;;3.33;2.67;;;;;;;;5042514;28;8814;-66
2023/03/02 05:21:23;;;;;;;;;1.33;1.33;;;;;;;;5037745;28;8798;-66
2023/03/02 05:23:49;;;;;;;;;10.33;3.33;;;;;;;;5048817;28;8828;-66
2023/03/02 05:26:14;;;;;;;;;2.00;1.00;;;;;;;;5051757;28;8772;-67
2023/03/02 05:28:40;;;;;;;;;5.00;2.00;;;;;;;;5017897;28;8929;-67
2023/03/02 05:31:05;;;;;;;;;2.00;2.00;;;;;;;;5031843;28;8786;-66
2023/03/02 05:33:30;;;;;;;;;7.00;4.00;;;;;;;;5032267;28;8877;-66
2023/03/02 05:35:56;;;;;;;;;4.00;4.00;;;;;;;;5031693;28;8814;-66
2023/03/02 05:38:22;;;;;;;;;5.00;4.00;;;;;;;;5031477;28;8805;-68
2023/03/02 05:40:47;;;;;;;;;4.00;4.00;;;;;;;;5034257;28;8811;-68
2023/03/02 05:43:14;;;;;;;;;10.33;8.00;;;;;;;;5022449;28;8830;-68
2023/03/02 05:45:39;;;;;;;;;5.67;4.00;;;;;;;;5039990;28;8804;-69
2023/03/02 05:48:05;;;;;;;;;4.00;2.67;;;;;;;;5042121;28;8800;-69
2023/03/02 05:50:32;;;;;;;;;4.00;4.00;;;;;;;;5040266;28;8802;-69
2023/03/02 05:52:58;;;;;;;;;3.67;2.00;;;;;;;;5040928;28;8788;-68
2023/03/02 05:55:24;;;;;;;;;7.00;7.00;;;;;;;;5041840;28;8818;-68
2023/03/02 05:57:49;;;;;;;;;1.33;1.00;;;;;;;;5039195;28;8817;-68
2023/03/02 06:00:16;;;;;;;;;7.00;4.67;;;;;;;;5030367;28;8818;-66
2023/03/02 06:02:41;;;;;;;;;4.00;4.00;;;;;;;;5031068;28;8778;-67
2023/03/02 06:05:07;;;;;;;;;7.67;5.00;;;;;;;;5031191;28;8813;-67
2023/03/02 06:07:32;;;;;;;;;2.00;2.00;;;;;;;;5013240;28;9568;-67
2023/03/02 06:09:58;;;;;;;;;7.33;5.00;;;;;;;;5031094;28;8790;-66
2023/03/02 06:12:23;;;;;;;;;4.00;4.00;;;;;;;;5031049;28;8869;-66
2023/03/02 06:14:48;;;;;;;;;7.00;4.00;;;;;;;;5031038;28;8817;-68
2023/03/02 06:17:14;;;;;;;;;7.33;5.00;;;;;;;;5013111;28;8922;-70
2023/03/02 06:19:39;;;;;;;;;7.00;4.00;;;;;;;;5030855;28;8829;-71
2023/03/02 06:22:04;;;;;;;;;4.00;4.00;;;;;;;;5030747;28;8875;-68
2023/03/02 06:24:30;;;;;;;;;5.00;4.33;;;;;;;;5012976;28;8830;-72
2023/03/02 06:26:55;;;;;;;;;4.33;4.33;;;;;;;;5025920;28;8806;-68
2023/03/02 06:29:21;;;;;;;;;4.00;4.00;;;;;;;;5029396;28;8932;-69
2023/03/02 06:31:46;;;;;;;;;4.33;2.67;;;;;;;;5030180;28;8798;-69
2023/03/02 06:34:11;;;;;;;;;2.00;2.00;;;;;;;;5030486;28;8853;-71
2023/03/02 06:36:38;;;;;;;;;7.33;5.00;;;;;;;;5030491;28;8774;-72
2023/03/02 06:39:04;;;;;;;;;2.00;2.00;;;;;;;;5030508;28;9528;-68
2023/03/02 06:41:29;;;;;;;;;2.67;2.00;;;;;;;;5030059;28;8805;-68
2023/03/02 06:43:55;;;;;;;;;5.33;4.00;;;;;;;;5030508;28;9521;-66
2023/03/02 06:46:20;;;;;;;;;7.33;4.00;;;;;;;;5026959;28;8826;-68
2023/03/02 06:48:46;;;;;;;;;4.33;4.00;;;;;;;;5029884;28;9653;-70
2023/03/02 06:51:11;;;;;;;;;4.33;4.33;;;;;;;;5030180;28;8884;-69
2023/03/02 06:53:37;;;;;;;;;5.67;5.67;;;;;;;;5029668;28;8829;-68
2023/03/02 06:56:02;;;;;;;;;7.00;4.67;;;;;;;;5029366;28;9725;-69
2023/03/02 06:58:28;;;;;;;;;10.00;7.33;;;;;;;;5028641;28;8947;-68
2023/03/02 07:00:53;;;;;;;;;7.67;7.00;;;;;;;;5028569;28;8805;-67
2023/03/02 07:03:18;;;;;;;;;5.00;5.00;;;;;;;;5028282;28;8884;-68
2023/03/02 07:05:43;;;;;;;;;4.00;4.00;;;;;;;;5027974;28;8802;-70
